Time;durP1;ratioP1;P1;durP2;ratioP2;P2;SDS_P1;SDS_P2;PMS_P1;PMS_P2;Temp;Humidity;BMP_temperature;BMP_pressure;BME280_temperature;BME280_humidity;BME280_pressure;Samples;Min_cycle;Max_cycle;Signal;HPM_P1;HPM_P2
2022/10/18 00:01:26;;;;;;;55.28;27.75;;;13.00;99.90;;;;;;5087755;28;20107;-62
2022/10/18 00:03:52;;;;;;;58.72;26.42;;;12.70;99.90;;;;;;5082011;28;20021;-62
2022/10/18 00:06:18;;;;;;;49.13;24.42;;;12.90;99.90;;;;;;5077529;28;20170;-62
2022/10/18 00:08:44;;;;;;;50.92;26.35;;;;;;;;;;5090550;28;20088;-62
2022/10/18 00:11:09;;;;;;;58.40;25.45;;;12.90;99.90;;;;;;5090184;28;20085;-62
2022/10/18 00:13:35;;;;;;;51.15;26.23;;;12.90;99.90;;;;;;5088673;28;20386;-62
2022/10/18 00:16:02;;;;;;;56.13;25.08;;;;;;;;;;5080670;28;20039;-62
2022/10/18 00:18:29;;;;;;;45.95;23.30;;;;;;;;;;5077265;28;20063;-62
2022/10/18 00:21:05;;;;;;;56.28;23.83;;;;;;;;;;5083212;28;20036;-62
2022/10/18 00:23:31;;;;;;;53.35;24.65;;;12.80;99.90;;;;;;5082179;28;20068;-62
2022/10/18 00:26:06;;;;;;;56.22;25.33;;;12.70;99.90;;;;;;5080388;28;20090;-62
2022/10/18 00:28:32;;;;;;;;;;;12.70;99.90;;;;;;5084583;28;20401;-62
2022/10/18 00:31:18;;;;;;;53.50;24.48;;;12.80;99.90;;;;;;5078900;28;19917;-62
2022/10/18 00:33:46;;;;;;;54.75;27.17;;;;;;;;;;5075209;28;20127;-62
2022/10/18 00:36:12;;;;;;;61.53;28.40;;;12.70;99.90;;;;;;5073856;28;20036;-62
2022/10/18 00:38:38;;;;;;;49.28;24.50;;;12.60;99.90;;;;;;5057427;28;20451;-62
2022/10/18 00:41:05;;;;;;;55.72;27.15;;;12.70;99.90;;;;;;5088961;28;20032;-62
2022/10/18 00:43:31;;;;;;;57.58;27.08;;;12.60;99.90;;;;;;5076105;28;20037;-62
2022/10/18 00:45:57;;;;;;;69.45;27.88;;;12.10;99.90;;;;;;5077702;28;20051;-62
2022/10/18 00:48:22;;;;;;;55.85;27.25;;;12.60;99.90;;;;;;5084045;28;20039;-62
2022/10/18 00:50:51;;;;;;;54.65;26.58;;;13.00;99.90;;;;;;5081140;28;20106;-62
2022/10/18 00:53:18;;;;;;;120.95;37.75;;;;;;;;;;5078661;28;20040;-62
2022/10/18 00:55:44;;;;;;;109.53;36.08;;;11.90;99.90;;;;;;5081915;28;20083;-62
2022/10/18 00:58:12;;;;;;;113.85;36.08;;;12.60;99.90;;;;;;5080610;28;20063;-62
2022/10/18 01:00:39;;;;;;;151.02;37.58;;;12.40;99.90;;;;;;5059062;28;20091;-62
2022/10/18 01:03:05;;;;;;;157.52;39.72;;;;;;;;;;5072707;28;20040;-62
2022/10/18 01:05:32;;;;;;;173.98;43.90;;;;;;;;;;5083256;28;20054;-62
2022/10/18 01:08:14;;;;;;;164.23;40.15;;;11.90;99.90;;;;;;5074774;28;20458;-62
2022/10/18 01:11:11;;;;;;;159.38;37.97;;;12.20;99.90;;;;;;5081944;28;20040;-62
2022/10/18 01:14:09;;;;;;;118.32;32.05;;;11.80;99.90;;;;;;5076656;28;20043;-62
2022/10/18 01:16:41;;;;;;;79.72;26.10;;;12.10;99.90;;;;;;5079436;28;20048;-62
2022/10/18 01:20:00;;;;;;;107.80;30.95;;;12.30;99.90;;;;;;5074430;28;20036;-62
2022/10/18 01:22:29;;;;;;;148.43;32.15;;;;;;;;;;4989509;28;20113;-62
2022/10/18 01:25:16;;;;;;;101.72;28.33;;;11.90;99.90;;;;;;5077479;28;20052;-62
2022/10/18 01:27:51;;;;;;;126.05;30.35;;;12.30;99.90;;;;;;5078233;28;20068;-62
2022/10/18 01:30:31;;;;;;;172.38;38.35;;;12.20;99.90;;;;;;5049824;28;20032;-62
2022/10/18 01:33:02;;;;;;;158.25;33.88;;;;;;;;;;5073983;28;20040;-62
2022/10/18 01:35:44;;;;;;;99.35;26.85;;;;;;;;;;5084858;28;20040;-62
2022/10/18 01:38:13;;;;;;;99.00;28.65;;;;;;;;;;5055050;28;20032;-62
2022/10/18 01:40:41;;;;;;;126.28;32.60;;;;;;;;;;5075294;28;20048;-62
2022/10/18 01:43:08;;;;;;;172.93;37.42;;;;;;;;;;5078661;28;20036;-62
2022/10/18 01:45:34;;;;;;;138.65;35.13;;;;;;;;;;5056208;28;20059;-62
2022/10/18 01:48:01;;;;;;;167.15;40.10;;;;;;;;;;5076948;28;20138;-62
2022/10/18 01:50:31;;;;;;;173.15;38.67;;;;;;;;;;5087656;28;20038;-62
2022/10/18 01:52:57;;;;;;;115.97;29.45;;;;;;;;;;5081825;28;20040;-62
2022/10/18 01:55:48;;;;;;;76.75;25.50;;;12.20;99.90;;;;;;5084624;28;20036;-62
2022/10/18 01:58:24;;;;;;;140.02;33.10;;;;;;;;;;5081856;28;20093;-62
2022/10/18 02:00:53;;;;;;;203.75;42.03;;;;;;;;;;5072032;28;20040;-62
2022/10/18 02:03:25;;;;;;;104.07;26.35;;;12.20;99.90;;;;;;5086964;28;20089;-62
2022/10/18 02:06:17;;;;;;;120.88;31.05;;;;;;;;;;5074107;28;20032;-62
2022/10/18 02:08:49;;;;;;;127.47;31.50;;;;;;;;;;5037892;28;20047;-62
2022/10/18 02:11:16;;;;;;;93.10;23.08;;;;;;;;;;5079093;28;20440;-62
2022/10/18 02:13:47;;;;;;;100.30;28.08;;;;;;;;;;5061864;28;20052;-62
2022/10/18 02:16:18;;;;;;;125.72;32.42;;;11.90;99.90;;;;;;5077374;28;20047;-62
2022/10/18 02:18:59;;;;;;;70.70;23.20;;;12.10;99.90;;;;;;5085511;28;20040;-62
2022/10/18 02:21:27;;;;;;;86.20;24.08;;;;;;;;;;5080072;28;20039;-62
2022/10/18 02:23:54;;;;;;;67.25;24.85;;;;;;;;;;5078466;28;20404;-61
2022/10/18 02:26:20;;;;;;;66.78;22.98;;;11.50;99.90;;;;;;5083086;28;20040;-62
2022/10/18 02:28:46;;;;;;;117.35;31.38;;;;;;;;;;5080907;28;20052;-62
2022/10/18 02:31:15;;;;;;;107.03;29.92;;;11.00;99.90;;;;;;5084296;28;20029;-62
2022/10/18 02:34:05;;;;;;;58.47;24.25;;;11.10;99.90;;;;;;5072897;28;20059;-62
2022/10/18 02:36:33;;;;;;;45.85;20.42;;;;;;;;;;5087197;28;20047;-62
2022/10/18 02:39:13;;;;;;;52.85;23.25;;;11.30;99.90;;;;;;5077454;28;20044;-62
2022/10/18 02:41:39;;;;;;;47.42;22.77;;;11.40;99.90;;;;;;5081259;28;20040;-62
2022/10/18 02:44:05;;;;;;;47.08;23.38;;;;;;;;;;5085684;28;20047;-62
2022/10/18 02:46:31;;;;;;;46.58;22.08;;;;;;;;;;5075375;28;20044;-62
2022/10/18 02:48:57;;;;;;;37.55;18.83;;;;;;;;;;5085568;28;20028;-62
2022/10/18 02:51:22;;;;;;;42.67;20.90;;;11.40;99.90;;;;;;5082724;28;20437;-62
2022/10/18 02:53:48;;;;;;;49.42;20.88;;;11.40;99.90;;;;;;5079902;28;20042;-62
2022/10/18 02:56:14;;;;;;;36.08;18.58;;;;;;;;;;5090084;28;20042;-62
2022/10/18 02:58:40;;;;;;;42.47;21.15;;;11.40;99.90;;;;;;5075953;28;20036;-62
2022/10/18 03:01:05;;;;;;;46.28;21.48;;;11.30;99.90;;;;;;5085258;28;20036;-62
2022/10/18 03:03:31;;;;;;;46.90;21.17;;;;;;;;;;5086401;28;20123;-62
2022/10/18 03:05:57;;;;;;;37.50;18.83;;;;;;;;;;5075683;28;20036;-62
2022/10/18 03:08:24;;;;;;;45.97;21.27;;;11.30;99.90;;;;;;5079539;28;20371;-62
2022/10/18 03:10:49;;;;;;;41.42;20.08;;;11.30;99.90;;;;;;5077784;28;20459;-62
2022/10/18 03:13:15;;;;;;;48.33;21.63;;;11.10;99.90;;;;;;5090272;28;20114;-62
2022/10/18 03:15:41;;;;;;;44.33;19.48;;;11.30;99.90;;;;;;5074158;28;20093;-61
2022/10/18 03:18:07;;;;;;;41.80;19.75;;;;;;;;;;5077961;28;20064;-61
2022/10/18 03:20:33;;;;;;;46.50;21.02;;;11.00;99.90;;;;;;5064244;28;20048;-62
2022/10/18 03:22:59;;;;;;;37.22;18.58;;;11.00;99.90;;;;;;5071718;28;20082;-62
2022/10/18 03:25:25;;;;;;;41.05;19.40;;;;;;;;;;5089320;28;20489;-62
2022/10/18 03:27:50;;;;;;;35.60;17.92;;;11.00;99.90;;;;;;5085430;28;20447;-62
2022/10/18 03:30:16;;;;;;;36.08;16.63;;;11.10;99.90;;;;;;5089922;28;20039;-62
2022/10/18 03:32:42;;;;;;;36.88;17.83;;;;;;;;;;5089557;28;20040;-62
2022/10/18 03:35:08;;;;;;;38.25;18.85;;;;;;;;;;5071574;28;20036;-62
2022/10/18 03:37:35;;;;;;;52.70;21.67;;;;;;;;;;5087936;28;20040;-62
2022/10/18 03:40:01;;;;;;;37.90;17.42;;;10.70;99.90;;;;;;5088551;28;20055;-62
2022/10/18 03:42:27;;;;;;;29.10;16.02;;;10.80;99.90;;;;;;5089493;28;20059;-62
2022/10/18 03:44:52;;;;;;;31.13;14.73;;;11.00;99.90;;;;;;5089184;28;20044;-62
2022/10/18 03:47:18;;;;;;;26.70;14.48;;;11.20;99.90;;;;;;5089252;28;20028;-61
2022/10/18 03:49:44;;;;;;;31.25;14.38;;;10.90;99.90;;;;;;5089410;28;20032;-62
2022/10/18 03:52:09;;;;;;;30.98;16.20;;;11.00;99.90;;;;;;5089771;28;20071;-61
2022/10/18 03:54:35;;;;;;;35.35;16.60;;;11.00;99.90;;;;;;5091673;28;20072;-61
2022/10/18 03:57:00;;;;;;;37.55;16.63;;;10.70;99.90;;;;;;5081729;28;20032;-62
2022/10/18 03:59:27;;;;;;;32.50;14.73;;;;;;;;;;5093161;28;20097;-62
2022/10/18 04:01:52;;;;;;;32.97;13.65;;;10.90;99.90;;;;;;5093370;28;20161;-62
2022/10/18 04:04:18;;;;;;;44.42;18.17;;;;;;;;;;5092099;28;20068;-62
2022/10/18 04:06:44;;;;;;;32.88;15.00;;;;;;;;;;5093043;28;20106;-61
2022/10/18 04:09:10;;;;;;;30.67;15.80;;;10.50;99.90;;;;;;5092138;28;20038;-61
2022/10/18 04:11:35;;;;;;;32.85;14.82;;;10.40;99.90;;;;;;5093185;28;21073;-61
2022/10/18 04:14:01;;;;;;;44.28;17.42;;;;;;;;;;5092987;28;20480;-62
2022/10/18 04:16:27;;;;;;;33.55;15.35;;;;;;;;;;5093080;28;20036;-61
2022/10/18 04:18:53;;;;;;;28.92;13.00;;;;;;;;;;5092296;28;20043;-61
2022/10/18 04:21:19;;;;;;;51.88;19.70;;;;;;;;;;5090451;28;20123;-62
2022/10/18 04:23:49;;;;;;;58.90;21.25;;;10.00;99.90;;;;;;5092369;28;20114;-61
2022/10/18 04:26:15;;;;;;;45.42;19.00;;;9.70;99.90;;;;;;5086253;28;20040;-61
2022/10/18 04:28:42;;;;;;;49.78;21.27;;;9.70;99.90;;;;;;5089538;28;20435;-62
2022/10/18 04:31:08;;;;;;;31.63;15.75;;;;;;;;;;5093012;28;20054;-62
2022/10/18 04:33:34;;;;;;;32.38;15.52;;;;;;;;;;5092572;28;20047;-61
2022/10/18 04:36:01;;;;;;;33.97;16.55;;;;;;;;;;5092620;28;20040;-61
2022/10/18 04:38:27;;;;;;;36.97;16.73;;;;;;;;;;5089515;28;20039;-62
2022/10/18 04:40:52;;;;;;;36.17;18.08;;;9.80;99.90;;;;;;5059829;28;20048;-61
2022/10/18 04:43:18;;;;;;;41.85;18.10;;;;;;;;;;5084867;28;20032;-62
2022/10/18 04:45:45;;;;;;;54.78;22.02;;;;;;;;;;5071038;28;20041;-62
2022/10/18 04:48:11;;;;;;;54.88;23.13;;;;;;;;;;5072131;28;20055;-62
2022/10/18 04:50:37;;;;;;;23.33;13.43;;;;;;;;;;5076711;28;20565;-62
2022/10/18 04:53:03;;;;;;;36.33;17.60;;;9.70;99.90;;;;;;5073081;28;20081;-61
2022/10/18 04:55:29;;;;;;;33.45;15.57;;;;;;;;;;5081334;28;20141;-62
2022/10/18 04:57:55;;;;;;;36.55;16.40;;;;;;;;;;5069846;28;20032;-62
2022/10/18 05:00:21;;;;;;;33.33;16.45;;;;;;;;;;5069099;28;20094;-62
2022/10/18 05:02:47;;;;;;;31.10;15.68;;;;;;;;;;5073793;28;20040;-61
2022/10/18 05:05:13;;;;;;;28.25;14.40;;;;;;;;;;5075755;28;20072;-61
2022/10/18 05:07:39;;;;;;;33.65;15.38;;;;;;;;;;5081396;28;20039;-61
2022/10/18 05:10:05;;;;;;;23.80;13.40;;;9.80;99.90;;;;;;5067519;28;20481;-61
2022/10/18 05:12:31;;;;;;;30.17;14.38;;;;;;;;;;5065647;28;20089;-61
2022/10/18 05:14:57;;;;;;;35.15;16.77;;;;;;;;;;5075848;28;20036;-61
2022/10/18 05:17:23;;;;;;;35.38;15.13;;;;;;;;;;5084040;28;20085;-62
2022/10/18 05:19:49;;;;;;;29.25;14.60;;;9.90;99.90;;;;;;5081014;28;20040;-61
2022/10/18 05:22:14;;;;;;;31.38;16.00;;;9.90;99.90;;;;;;5088057;28;20760;-62
2022/10/18 05:24:40;;;;;;;35.00;16.20;;;;;;;;;;5084183;28;20062;-62
2022/10/18 05:27:06;;;;;;;27.10;14.98;;;;;;;;;;5090266;28;20040;-62
2022/10/18 05:29:32;;;;;;;26.80;14.68;;;;;;;;;;5085334;28;20075;-61
2022/10/18 05:31:58;;;;;;;36.38;15.85;;;10.00;99.90;;;;;;5085989;28;20068;-61
2022/10/18 05:34:26;;;;;;;33.45;14.38;;;;;;;;;;5090249;28;20490;-61
2022/10/18 05:36:52;;;;;;;33.78;15.55;;;;;;;;;;5078487;28;20044;-61
2022/10/18 05:39:18;;;;;;;28.95;13.52;;;;;;;;;;5091064;28;20132;-62
2022/10/18 05:41:44;;;;;;;31.80;14.20;;;;;;;;;;5085824;28;20070;-62
2022/10/18 05:44:09;;;;;;;30.42;14.80;;;9.90;99.90;;;;;;5070033;28;20067;-62
2022/10/18 05:46:35;;;;;;;29.80;13.93;;;10.00;99.90;;;;;;5090883;28;20032;-61
2022/10/18 05:49:01;;;;;;;33.35;15.18;;;9.80;99.90;;;;;;5089270;28;20548;-62
2022/10/18 05:51:27;;;;;;;22.38;11.60;;;;;;;;;;5091005;28;20024;-61
2022/10/18 05:53:53;;;;;;;27.50;12.73;;;;;;;;;;5071774;28;20085;-61
2022/10/18 05:56:19;;;;;;;32.47;13.80;;;;;;;;;;5090915;28;20044;-61
2022/10/18 05:58:49;;;;;;;24.27;11.88;;;;;;;;;;5089925;28;20066;-61
2022/10/18 06:01:15;;;;;;;27.85;14.18;;;;;;;;;;5090810;28;20036;-61
2022/10/18 06:03:41;;;;;;;25.75;13.25;;;;;;;;;;5090149;28;20119;-61
2022/10/18 06:06:09;;;;;;;27.25;15.13;;;10.40;99.90;;;;;;5088215;28;20111;-61
2022/10/18 06:08:35;;;;;;;33.20;15.38;;;;;;;;;;5083650;28;20404;-62
2022/10/18 06:11:09;;;;;;;27.10;14.98;;;9.40;99.90;;;;;;5074561;28;20041;-62
2022/10/18 06:13:40;;;;;;;27.08;14.60;;;10.00;99.90;;;;;;5076568;28;20119;-62
2022/10/18 06:16:06;;;;;;;24.33;12.95;;;;;;;;;;5080079;28;20036;-61
2022/10/18 06:18:32;;;;;;;37.33;17.00;;;;;;;;;;5078341;28;20569;-61
2022/10/18 06:20:58;;;;;;;33.25;17.17;;;;;;;;;;5080994;28;20044;-62
2022/10/18 06:23:25;;;;;;;29.80;13.77;;;;;;;;;;5083100;28;20127;-61
2022/10/18 06:25:51;;;;;;;25.88;13.23;;;;;;;;;;5077831;28;20040;-62
2022/10/18 06:28:17;;;;;;;29.13;14.13;;;;;;;;;;5084788;28;20031;-61
2022/10/18 06:30:43;;;;;;;32.80;14.13;;;;;;;;;;5085206;28;20710;-62
2022/10/18 06:33:12;;;;;;;27.95;14.23;;;;;;;;;;5084263;28;20072;-62
2022/10/18 06:35:38;;;;;;;30.55;14.23;;;9.70;99.90;;;;;;5080218;28;20036;-62
2022/10/18 06:38:05;;;;;;;24.15;12.60;;;;;;;;;;5077815;28;20051;-62
2022/10/18 06:40:36;;;;;;;25.83;12.32;;;;;;;;;;5086484;28;20181;-62
2022/10/18 06:43:07;;;;;;;32.67;14.38;;;9.50;99.90;;;;;;5082947;28;20036;-61
2022/10/18 06:45:33;;;;;;;23.73;11.43;;;9.60;99.90;;;;;;5081347;28;20119;-61
2022/10/18 06:47:59;;;;;;;21.48;10.27;;;;;;;;;;5084765;28;20116;-61
2022/10/18 06:50:25;;;;;;;24.98;11.45;;;;;;;;;;5076146;28;20474;-61
2022/10/18 06:52:53;;;;;;;22.70;9.57;;;;;;;;;;5088904;28;20126;-61
2022/10/18 06:55:19;;;;;;;23.77;10.40;;;9.70;99.90;;;;;;5081027;28;20503;-62
2022/10/18 06:57:45;;;;;;;26.20;10.52;;;;;;;;;;5070737;28;20071;-61
2022/10/18 07:00:11;;;;;;;21.90;10.65;;;;;;;;;;5087742;28;20043;-62
2022/10/18 07:02:40;;;;;;;26.85;11.82;;;10.00;99.90;;;;;;5081539;28;20051;-61
2022/10/18 07:05:06;;;;;;;21.83;9.27;;;10.10;99.90;;;;;;5089232;28;20170;-62
2022/10/18 07:07:32;;;;;;;14.80;7.93;;;10.10;99.90;;;;;;5088012;28;20040;-62
2022/10/18 07:09:58;;;;;;;16.65;8.52;;;;;;;;;;5087268;28;20039;-62
2022/10/18 07:12:24;;;;;;;22.42;8.98;;;;;;;;;;5083683;28;20656;-62
2022/10/18 07:14:50;;;;;;;21.75;9.23;;;;;;;;;;5084015;28;20043;-62
2022/10/18 07:17:16;;;;;;;21.63;9.02;;;10.30;99.90;;;;;;5076884;28;20032;-62
2022/10/18 07:19:41;;;;;;;20.90;8.18;;;10.40;99.90;;;;;;5057613;28;20547;-62
2022/10/18 07:22:07;;;;;;;17.58;7.85;;;10.50;99.90;;;;;;5085072;28;20036;-62
2022/10/18 07:24:32;;;;;;;19.40;8.55;;;10.50;99.90;;;;;;5087254;28;20421;-62
2022/10/18 07:26:59;;;;;;;18.27;7.68;;;;;;;;;;5087408;28;20032;-62
2022/10/18 07:29:24;;;;;;;17.13;8.88;;;;;;;;;;5079403;28;20036;-62
2022/10/18 07:31:50;;;;;;;19.90;8.27;;;10.50;99.90;;;;;;5084279;28;20033;-62
2022/10/18 07:34:16;;;;;;;25.58;8.60;;;10.80;99.90;;;;;;5089652;28;20040;-62
2022/10/18 07:36:42;;;;;;;21.55;8.57;;;;;;;;;;5085407;28;20075;-61
2022/10/18 07:39:08;;;;;;;14.02;7.18;;;;;;;;;;5065248;28;20047;-62
2022/10/18 07:41:34;;;;;;;17.05;7.10;;;;;;;;;;5080873;28;20467;-61
2022/10/18 07:44:01;;;;;;;18.27;7.25;;;;;;;;;;5088210;28;20032;-62
2022/10/18 07:46:27;;;;;;;18.73;6.75;;;;;;;;;;5092774;28;20032;-61
2022/10/18 07:48:54;;;;;;;19.20;8.35;;;;;;;;;;5090716;28;20070;-61
2022/10/18 07:51:20;;;;;;;16.90;7.90;;;11.10;99.90;;;;;;5084372;28;20036;-62
2022/10/18 07:53:46;;;;;;;19.60;7.70;;;11.10;99.90;;;;;;5089784;28;20047;-62
2022/10/18 07:56:15;;;;;;;14.77;6.15;;;;;;;;;;5087197;28;20039;-61
2022/10/18 07:58:44;;;;;;;21.17;5.63;;;;;;;;;;5064403;28;20078;-61
2022/10/18 08:01:10;;;;;;;19.17;6.30;;;11.30;99.90;;;;;;5088940;28;20043;-62
2022/10/18 08:03:37;;;;;;;17.23;5.05;;;11.30;99.90;;;;;;5069233;28;20047;-62
2022/10/18 08:06:04;;;;;;;14.38;5.90;;;;;;;;;;5091306;28;20051;-61
2022/10/18 08:08:31;;;;;;;14.10;6.05;;;;;;;;;;5091542;28;20449;-61
2022/10/18 08:11:04;;;;;;;14.32;5.85;;;;;;;;;;5083429;28;20511;-61
2022/10/18 08:13:30;;;;;;;13.23;6.18;;;;;;;;;;5079945;28;20042;-61
2022/10/18 08:16:04;;;;;;;21.92;6.45;;;11.80;99.90;;;;;;5081194;28;20138;-61
2022/10/18 08:18:30;;;;;;;27.23;7.55;;;11.60;99.90;;;;;;5080818;28;20040;-61
2022/10/18 08:20:58;;;;;;;19.42;6.60;;;;;;;;;;5079497;28;20043;-61
2022/10/18 08:23:24;;;;;;;16.70;6.53;;;11.60;99.90;;;;;;5082247;28;20343;-61
2022/10/18 08:25:49;;;;;;;17.40;6.53;;;11.80;99.90;;;;;;5084664;28;20065;-61
2022/10/18 08:28:16;;;;;;;22.13;6.65;;;11.80;99.90;;;;;;5088678;28;20024;-61
2022/10/18 08:30:42;;;;;;;15.75;5.85;;;;;;;;;;5064836;28;20075;-61
2022/10/18 08:33:08;;;;;;;18.48;6.50;;;;;;;;;;5083240;28;20036;-61
2022/10/18 08:35:34;;;;;;;18.08;6.63;;;;;;;;;;5065735;28;20051;-63
2022/10/18 08:38:00;;;;;;;17.00;5.63;;;12.00;99.90;;;;;;5084968;28;20058;-62
2022/10/18 08:40:26;;;;;;;21.15;5.47;;;;;;;;;;5089933;28;20497;-62
2022/10/18 08:43:07;;;;;;;23.77;5.13;;;11.90;99.90;;;;;;5091950;28;20032;-62
2022/10/18 08:45:37;;;;;;;17.42;4.82;;;12.40;99.90;;;;;;5083780;28;20382;-63
2022/10/18 08:48:04;;;;;;;17.27;4.68;;;;;;;;;;5085102;28;20028;-63
2022/10/18 08:50:34;;;;;;;14.10;4.40;;;12.00;99.90;;;;;;5083057;28;20035;-63
2022/10/18 08:53:18;;;;;;;20.88;5.35;;;;;;;;;;5088480;28;20075;-63
2022/10/18 08:55:51;;;;;;;16.15;4.20;;;;;;;;;;5057710;28;20512;-63
2022/10/18 08:58:25;;;;;;;16.42;3.92;;;;;;;;;;5060958;28;20405;-62
2022/10/18 09:01:09;;;;;;;25.40;3.80;;;;;;;;;;5061313;28;20055;-63
2022/10/18 09:04:02;;;;;;;16.50;3.67;;;12.50;99.90;;;;;;5078599;28;20040;-63
2022/10/18 09:06:54;;;;;;;19.92;4.22;;;12.00;99.90;;;;;;5075964;28;20047;-62
2022/10/18 09:09:23;;;;;;;13.95;3.10;;;12.80;99.90;;;;;;5051693;28;20056;-62
2022/10/18 09:12:09;;;;;;;18.13;3.85;;;;;;;;;;5085416;28;20036;-62
2022/10/18 09:14:35;;;;;;;16.85;3.50;;;;;;;;;;5085158;28;20051;-62
2022/10/18 09:17:20;;;;;;;15.00;3.38;;;;;;;;;;5080230;28;20036;-62
2022/10/18 09:19:46;;;;;;;;;;;;;;;;;;5074160;28;20050;-62
2022/10/18 09:22:15;;;;;;;13.52;3.20;;;12.70;99.90;;;;;;5060847;22;20508;-59
2022/10/18 09:24:49;;;;;;;14.38;3.28;;;13.40;99.90;;;;;;5009674;28;20046;-60
2022/10/18 09:27:21;;;;;;;18.27;3.42;;;12.90;99.90;;;;;;5009822;28;20546;-61
2022/10/18 09:30:09;;;;;;;16.55;3.85;;;12.40;99.90;;;;;;4992798;28;20073;-61
2022/10/18 09:32:46;;;;;;;15.23;3.00;;;12.80;99.90;;;;;;4998171;28;20053;-60
2022/10/18 09:35:32;;;;;;;15.80;3.00;;;12.80;99.90;;;;;;5003316;28;20038;-61
2022/10/18 09:38:10;;;;;;;13.35;3.05;;;12.90;99.90;;;;;;4994298;28;20045;-60
2022/10/18 09:40:46;;;;;;;16.23;3.42;;;12.50;99.90;;;;;;4993739;28;20495;-61
2022/10/18 09:43:21;;;;;;;11.45;2.42;;;13.00;99.90;;;;;;5004172;28;20040;-59
2022/10/18 09:45:49;;;;;;;11.50;2.83;;;12.70;99.90;;;;;;5003741;28;20044;-59
2022/10/18 09:48:35;;;;;;;12.82;2.85;;;13.10;99.90;;;;;;5001159;28;20076;-60
2022/10/18 09:51:16;;;;;;;15.85;2.40;;;13.60;99.90;;;;;;4986942;28;20038;-60
2022/10/18 09:54:04;;;;;;;9.60;2.63;;;14.20;99.90;;;;;;5000912;28;20073;-61
2022/10/18 09:56:38;;;;;;;11.13;2.72;;;13.10;99.90;;;;;;5007296;28;20503;-61
2022/10/18 09:59:03;;;;;;;15.47;2.63;;;13.80;99.90;;;;;;5004533;28;20041;-61
2022/10/18 10:01:30;;;;;;;8.65;1.80;;;14.20;99.90;;;;;;5007359;28;20044;-60
2022/10/18 10:03:56;;;;;;;9.18;2.20;;;14.10;99.90;;;;;;5009681;28;20414;-60
2022/10/18 10:06:26;;;;;;;11.43;2.33;;;14.10;99.90;;;;;;5009887;28;20117;-60
2022/10/18 10:09:04;;;;;;;10.68;2.15;;;14.30;99.90;;;;;;5009532;28;20116;-60
2022/10/18 10:11:38;;;;;;;11.13;2.30;;;14.40;99.90;;;;;;5002642;28;20034;-61
2022/10/18 10:14:17;;;;;;;13.05;3.25;;;14.40;99.90;;;;;;5003681;28;20046;-61
2022/10/18 10:16:58;;;;;;;10.75;1.98;;;14.40;99.90;;;;;;5007666;28;20115;-59
2022/10/18 10:19:33;;;;;;;11.65;2.60;;;14.60;99.90;;;;;;5009858;28;20113;-61
2022/10/18 10:22:06;;;;;;;10.50;2.72;;;14.90;99.90;;;;;;5001416;28;20034;-60
2022/10/18 10:24:50;;;;;;;17.48;2.85;;;14.60;99.90;;;;;;5008959;28;20120;-60
2022/10/18 10:27:28;;;;;;;16.33;3.17;;;14.80;99.90;;;;;;5007156;28;20034;-61
2022/10/18 10:29:56;;;;;;;11.40;2.30;;;14.70;99.90;;;;;;5003734;28;20279;-61
2022/10/18 10:32:23;;;;;;;12.23;2.53;;;14.50;99.90;;;;;;4991329;28;20050;-60
2022/10/18 10:34:50;;;;;;;12.13;2.60;;;14.40;99.90;;;;;;5008899;28;20495;-61
2022/10/18 10:37:31;;;;;;;14.60;3.35;;;14.40;99.90;;;;;;5008124;28;20048;-60
2022/10/18 10:40:49;;;;;;;12.80;2.60;;;14.80;99.90;;;;;;5008955;28;20038;-61
2022/10/18 10:43:22;;;;;;;13.45;2.70;;;15.20;99.90;;;;;;4924698;29;20114;-61
2022/10/18 10:46:06;;;;;;;15.20;2.67;;;15.60;99.90;;;;;;5006362;28;20053;-60
2022/10/18 10:48:38;;;;;;;10.05;2.30;;;15.30;99.90;;;;;;5007100;28;20096;-61
2022/10/18 10:51:09;;;;;;;9.18;2.92;;;15.00;99.90;;;;;;5008325;28;20044;-60
2022/10/18 10:53:37;;;;;;;9.27;2.30;;;15.60;99.90;;;;;;5001790;28;20092;-61
2022/10/18 10:56:04;;;;;;;10.07;2.10;;;14.90;99.90;;;;;;5008933;28;20038;-61
2022/10/18 10:58:38;;;;;;;10.00;2.45;;;15.40;99.90;;;;;;5008347;28;20053;-60
2022/10/18 11:01:23;;;;;;;8.32;1.80;;;14.40;99.90;;;;;;4999069;28;20072;-60
2022/10/18 11:03:50;;;;;;;12.48;2.83;;;15.00;99.90;;;;;;5005251;28;20121;-60
2022/10/18 11:06:39;;;;;;;12.13;2.28;;;14.50;99.90;;;;;;5008896;28;20038;-61
2022/10/18 11:09:23;;;;;;;14.20;2.15;;;15.70;99.90;;;;;;5009804;28;20069;-61
2022/10/18 11:11:59;;;;;;;9.25;2.20;;;15.20;99.90;;;;;;5007569;28;20427;-61
2022/10/18 11:14:29;;;;;;;10.50;3.15;;;15.70;99.90;;;;;;5005837;28;20511;-61
2022/10/18 11:17:10;;;;;;;10.55;2.65;;;16.10;99.90;;;;;;4989433;28;20048;-61
2022/10/18 11:20:00;;;;;;;8.63;2.50;;;15.30;99.90;;;;;;5004603;28;20052;-61
2022/10/18 11:22:32;;;;;;;9.20;2.30;;;15.80;99.90;;;;;;5004979;28;20132;-61
2022/10/18 11:24:57;;;;;;;8.05;1.95;;;15.20;99.90;;;;;;5009478;28;20074;-61
2022/10/18 11:27:39;;;;;;;11.60;2.03;;;15.30;99.90;;;;;;5006923;28;20069;-60
2022/10/18 11:30:36;;;;;;;11.45;2.42;;;15.80;99.90;;;;;;5008125;28;20069;-61
2022/10/18 11:33:19;;;;;;;11.40;3.17;;;14.90;99.90;;;;;;5007683;28;20078;-60
2022/10/18 11:35:53;;;;;;;11.25;2.28;;;15.20;99.90;;;;;;5005187;28;20049;-61
2022/10/18 11:38:34;;;;;;;11.00;2.05;;;14.80;99.90;;;;;;5002205;28;20121;-63
2022/10/18 11:41:12;;;;;;;7.65;2.05;;;14.50;99.90;;;;;;4996279;28;20104;-60
2022/10/18 11:43:57;;;;;;;8.68;2.35;;;15.60;99.90;;;;;;4989433;28;20498;-61
2022/10/18 11:46:34;;;;;;;11.23;2.22;;;14.70;99.90;;;;;;4997369;28;20097;-61
2022/10/18 11:49:27;;;;;;;9.93;2.55;;;15.00;99.90;;;;;;5000695;28;20037;-61
2022/10/18 11:52:04;;;;;;;10.32;2.55;;;15.60;99.90;;;;;;4992920;28;20037;-60
2022/10/18 11:54:48;;;;;;;11.65;3.78;;;15.30;99.90;;;;;;4996258;28;20038;-61
2022/10/18 11:57:43;;;;;;;15.52;2.67;;;15.50;99.90;;;;;;4981830;28;20762;-61
2022/10/18 12:00:39;;;;;;;10.13;2.20;;;15.00;99.90;;;;;;4990323;28;20095;-61
2022/10/18 12:03:23;;;;;;;12.02;2.95;;;14.60;99.90;;;;;;5007370;28;20038;-61
2022/10/18 12:05:51;;;;;;;9.15;2.13;;;14.70;99.90;;;;;;5007553;28;20115;-61
2022/10/18 12:08:29;;;;;;;8.07;2.20;;;16.00;99.90;;;;;;5003634;28;20049;-61
2022/10/18 12:10:58;;;;;;;8.10;1.67;;;15.50;99.90;;;;;;4998057;28;20074;-61
2022/10/18 12:13:32;;;;;;;9.60;2.10;;;15.30;99.90;;;;;;5001396;28;20038;-60
2022/10/18 12:15:59;;;;;;;12.88;2.50;;;15.80;99.90;;;;;;5011964;28;20140;-61
2022/10/18 12:18:26;;;;;;;10.98;2.33;;;16.70;99.90;;;;;;5010446;28;20048;-61
2022/10/18 12:20:56;;;;;;;7.35;1.80;;;16.70;99.90;;;;;;5011144;28;20041;-60
2022/10/18 12:23:28;;;;;;;6.90;1.80;;;17.10;99.90;;;;;;5000010;28;20045;-61
2022/10/18 12:25:59;;;;;;;9.68;2.10;;;17.60;99.90;;;;;;4987262;28;20042;-60
2022/10/18 12:29:04;;;;;;;12.35;2.22;;;18.30;99.90;;;;;;5006954;28;20175;-61
2022/10/18 12:31:41;;;;;;;9.80;2.05;;;17.80;99.90;;;;;;5002193;28;20045;-59
2022/10/18 12:34:34;;;;;;;7.93;2.50;;;18.10;99.90;;;;;;5010942;28;20128;-60
2022/10/18 12:37:27;;;;;;;10.85;2.38;;;19.20;99.90;;;;;;4992251;28;20042;-60
2022/10/18 12:40:05;;;;;;;11.30;2.50;;;20.30;99.90;;;;;;4991792;28;20136;-61
2022/10/18 12:42:33;;;;;;;8.43;2.38;;;20.90;99.90;;;;;;5008064;28;20068;-61
2022/10/18 12:45:23;;;;;;;9.82;2.08;;;22.00;99.90;;;;;;5010333;28;20038;-61
2022/10/18 12:47:48;;;;;;;7.47;2.08;;;21.80;1.00;;;;;;5009831;28;20034;-61
2022/10/18 12:50:31;;;;;;;6.03;1.77;;;20.00;1.00;;;;;;5009589;28;20057;-61
2022/10/18 12:53:19;;;;;;;12.93;2.83;;;19.90;1.00;;;;;;5003075;28;20038;-61
2022/10/18 12:55:52;;;;;;;9.02;2.10;;;19.90;1.00;;;;;;5010432;28;20042;-61
2022/10/18 12:58:24;;;;;;;8.77;1.90;;;18.70;1.00;;;;;;5010469;28;20048;-59
2022/10/18 13:00:55;;;;;;;11.27;2.22;;;18.20;1.00;;;;;;4986315;28;20053;-61
2022/10/18 13:03:23;;;;;;;12.82;2.28;;;17.60;1.00;;;;;;5006128;28;20100;-60
2022/10/18 13:05:53;;;;;;;11.00;1.98;;;18.50;1.00;;;;;;5002414;28;20048;-61
2022/10/18 13:08:41;;;;;;;12.45;2.50;;;17.60;1.00;;;;;;5003741;28;20499;-61
2022/10/18 13:11:09;;;;;;;12.35;2.53;;;16.90;1.00;;;;;;5008928;28;20465;-61
2022/10/18 13:14:14;;;;;;;7.93;2.95;;;17.70;1.00;;;;;;5010226;28;20499;-61
2022/10/18 13:16:52;;;;;;;12.13;2.20;;;18.90;1.00;;;;;;5007406;28;20068;-61
2022/10/18 13:19:32;;;;;;;8.13;2.13;;;19.40;1.00;;;;;;5008620;28;20045;-60
2022/10/18 13:22:38;;;;;;;10.30;2.67;;;19.20;1.00;;;;;;5004019;28;20054;-61
2022/10/18 13:25:26;;;;;;;7.93;2.28;;;20.60;1.00;;;;;;4991346;28;20506;-61
2022/10/18 13:28:12;;;;;;;7.55;1.63;;;21.70;1.00;;;;;;5009719;28;20087;-60
2022/10/18 13:30:56;;;;;;;11.13;2.13;;;20.40;1.00;;;;;;5009166;28;20159;-60
2022/10/18 13:33:37;;;;;;;11.13;2.35;;;20.00;1.00;;;;;;5006485;28;20046;-61
2022/10/18 13:36:15;;;;;;;18.67;2.78;;;19.70;1.00;;;;;;5005977;28;20042;-61